Kiritimati, Kiribati

11:56 PM LINT on October 22, 2014 (GMT +1400)
Cassidy International | Change Station
CLOSE
Current Station
Airport
Location: Kiritimati,
Elevation: 3 ft
Nearby Weather Stations

Elev 3 ft 1.99 °N, 157.35 °W | Updated 56 minutes ago

Partly Cloudy
Partly Cloudy
79 °F
Feels Like 79 °F
N
16
Wind Variable Wind from SE

Today
High -- | Low -- °F
--% Chance of Precip.
Yesterday
High -- | Low -- °F
Precip. -- in
6:12 AM 6:16 PM
Waning Crescent, 2% visible
Pressure 29.89 in
Visibility 6.2 miles
Clouds Few 2000 ft
Dew Point 73 °F
Humidity 83%
Rainfall 0.00 in
Snow Depth Not available.
UV 0 out of 12
Pollen Not available.
Air Quality Not available.
Flu Activity Not available.
METAR PLCH 220900Z 14014KT 9999 FEW020 26/23 Q1012

More Conditions Fewer Conditions

Pressure 29.89 in
Visibility 6.2 miles
Clouds Few 2000 ft
Dew Point 73 °F
Humidity 83%
Rainfall 0.00 in
Snow Depth Not available.
UV 0 out of 12
Pollen Not available.
Air Quality Not available.
Flu Activity Not available.
METAR PLCH 220900Z 14014KT 9999 FEW020 26/23 Q1012

More Conditions Fewer Conditions

10-Day Weather Forecast

Almanac

Astronomy

Oct. 22, 2014 Rise Set
Actual Time 6:12 AM LINT 6:16 PM LINT
Civil Twilight 5:51 AM LINT 6:37 PM LINT
Nautical Twilight 5:26 AM LINT 7:01 PM LINT
Astronomical Twilight 5:02 AM LINT 7:26 PM LINT
Moon 4:34 AM LINT 4:55 PM LINT
Length of Visible Light 12h 45m
Length of Day
12h 03m
Tomorrow will be 0m 5s shorter.
Waning Crescent, 2% of the Moon is Illuminated
Today
Waning Crescent
Oct 23
New
Oct 30
First Quarter
Nov 6
Full
Nov 14
Last Quarter

Yesterday's Extremes

Country Highs Country Lows

Community

WunderPhotos

Upload Photos

1,763,900 photos uploaded!

Nearby

Snow Depth

Not available.

Earthquake Activity

City Distance Mag. Time & Date
No recent earthquake activity has been reported nearby.
Minimum magnitude displayed is 2.5.

Coastal Water Temperatures

Place Temperature
No Stations Reporting

Nearby Weather Stations